Terminal Aerodrome Forecast
Issued by NWS

Home | Current Version | Previous Version | Text Only | Print | Product List | Glossary On
Versions: 1 2 3 4 5 6 7 8 9 10 11 12 13 14 15 16 17 18 19 20 21 22 23 24 25 26
000
FTUS41 KBTV 041721
TAFPBG
TAF
KPBG 041721Z 0418/0518 05007KT P6SM FEW250
     FM050000 VRB03KT P6SM FEW250
     FM051400 13007KT P6SM FEW250=

USA.gov is the U.S. government's official web portal to all federal, state and local government web resources and services.